Terminal Aerodrome Forecast
Issued by NWS

Home | Current Version | Previous Version | Graphics & Text | Print | Product List | Glossary On
Versions: 1 2 3 4 5 6 7 8 9 10 11 12 13 14 15 16 17 18
436
FTUS43 KMPX 301916 AAA
TAFRWF
TAF AMD
KRWF 301916Z 3019/0118 07017G25KT P6SM OVC060
     FM302300 06012G20KT P6SM -RA SCT025 OVC040
     FM010400 04009KT P6SM VCSH SCT020 BKN040 OVC100
     FM010900 03010G16KT P6SM FEW045 SCT250=

USA.gov is the U.S. government's official web portal to all federal, state and local government web resources and services.